Eastlake, Colorado
Current Conditions -  °F | °C
As of 3:15 PM on Friday 31 Oct 2014 (Local Time) from KEIK Reporting Station
Clear Clear  
Wind Chill: 54°   Ceiling: Unl
Heat Index: 54°   Visibility: 10mi
Dew Point: 29°   Wind: 3mph
Humidity: 39%   Direction: 350°N
Pressure: 30.15"   Gusts: NA
Location:  39.92°N, 104.96°W
Report Text: KEIK 312115Z AUTO 35003KT 10SM CLR 12/M02 A3015 RMK AO2 T01201017
Loading
Personal Weather Stations






























Interactive Weather Map New forecast layout! Learn more

10-Day Weather Forecast

Advertisements
Track Severe Weather on mobile